createdAt,value
2018-06-08T00:01:26.200Z,0.00
2018-06-08T00:01:58.744Z,0.00
2018-06-08T00:02:58.692Z,0.00
2018-06-08T00:03:58.737Z,0.00
2018-06-08T00:04:58.714Z,0.00
2018-06-08T07:34:55.885Z,118.13
2018-06-08T07:35:55.946Z,118.13
2018-06-08T07:36:55.903Z,118.13
2018-06-08T07:37:55.928Z,118.13
2018-06-08T07:38:55.854Z,123.75
2018-06-08T07:39:55.913Z,123.75
2018-06-08T07:40:55.862Z,123.75
2018-06-08T07:41:56.148Z,123.75
2018-06-08T07:42:56.059Z,123.75
2018-06-08T07:43:55.874Z,123.75
2018-06-08T07:44:55.828Z,129.38
2018-06-08T07:45:55.848Z,129.38
2018-06-08T07:46:55.853Z,129.38
2018-06-08T07:47:55.820Z,129.38
2018-06-08T07:48:55.823Z,135.00
2018-06-08T07:49:55.804Z,135.00
2018-06-08T07:50:55.816Z,135.00
2018-06-08T07:51:55.833Z,140.63
2018-06-08T07:52:55.799Z,140.63
2018-06-08T07:53:55.910Z,140.63
2018-06-08T07:54:55.811Z,140.63
2018-06-08T07:55:55.819Z,146.25
2018-06-08T07:56:55.805Z,146.25
2018-06-08T07:57:55.844Z,146.25
2018-06-08T07:58:55.811Z,140.63
2018-06-08T07:59:55.780Z,146.25
2018-06-08T08:00:55.777Z,157.50
2018-06-08T08:01:55.776Z,163.13
2018-06-08T08:02:55.777Z,163.13
2018-06-08T08:03:55.900Z,163.13
2018-06-08T08:04:55.760Z,163.13
2018-06-08T08:05:55.772Z,163.13
2018-06-08T08:06:55.767Z,168.75
2018-06-08T08:07:55.759Z,157.50
2018-06-08T08:08:55.749Z,163.13
2018-06-08T08:09:55.778Z,168.75
2018-06-08T08:10:55.752Z,168.75
2018-06-08T08:11:55.779Z,180.00
2018-06-08T08:12:55.770Z,180.00
2018-06-08T08:13:55.738Z,191.25
2018-06-08T08:14:55.732Z,196.88
2018-06-08T08:15:55.735Z,208.13
2018-06-08T08:16:55.757Z,213.75
2018-06-08T08:17:55.963Z,225.00
2018-06-08T08:18:55.785Z,225.00
2018-06-08T08:19:55.712Z,225.00
2018-06-08T08:20:55.709Z,230.63
2018-06-08T08:21:55.984Z,230.63
2018-06-08T08:22:56.120Z,230.63
2018-06-08T08:23:55.709Z,225.00
2018-06-08T08:24:55.753Z,225.00
2018-06-08T08:25:55.711Z,219.38
2018-06-08T08:26:55.695Z,219.38
2018-06-08T08:27:55.696Z,213.75
2018-06-08T08:28:55.696Z,219.38
2018-06-08T08:29:56.049Z,219.38
2018-06-08T08:30:55.712Z,219.38
2018-06-08T08:31:55.689Z,225.00
2018-06-08T08:32:55.696Z,219.38
2018-06-08T08:33:55.674Z,219.38
2018-06-08T08:34:55.685Z,219.38
2018-06-08T08:35:55.674Z,225.00
2018-06-08T08:36:55.683Z,225.00
2018-06-08T08:37:55.701Z,219.38
2018-06-08T08:38:55.714Z,219.38
2018-06-08T08:39:55.681Z,236.25
2018-06-08T08:40:55.680Z,247.50
2018-06-08T08:41:55.674Z,270.00
2018-06-08T08:42:56.028Z,286.88
2018-06-08T08:43:55.685Z,286.88
2018-06-08T08:44:55.678Z,286.88
2018-06-08T08:45:55.677Z,281.25
2018-06-08T08:46:55.671Z,286.88
2018-06-08T08:48:14.738Z,275.63
2018-06-08T08:48:55.666Z,286.88
2018-06-08T08:49:55.665Z,298.13
2018-06-08T08:50:55.668Z,309.38
2018-06-08T08:51:55.682Z,309.38
2018-06-08T08:52:55.709Z,286.88
2018-06-08T08:53:55.704Z,303.75
2018-06-08T08:54:55.672Z,286.88
2018-06-08T08:55:55.669Z,309.38
2018-06-08T08:56:55.722Z,348.75
2018-06-08T08:57:55.676Z,360.00
2018-06-08T08:58:55.667Z,371.25
2018-06-08T08:59:55.673Z,393.75
2018-06-08T09:00:55.674Z,405.00
2018-06-08T09:01:55.676Z,433.13
2018-06-08T09:02:55.723Z,495.00
2018-06-08T09:03:55.693Z,720.00
2018-06-08T09:04:55.716Z,1231.88
2018-06-08T09:05:55.716Z,1648.13
2018-06-08T09:06:55.698Z,1738.13
2018-06-08T09:07:55.685Z,1800.00
2018-06-08T09:08:55.695Z,1906.88
2018-06-08T09:09:55.723Z,1884.38
2018-06-08T09:10:56.047Z,1738.13
2018-06-08T09:11:55.709Z,1906.88
2018-06-08T09:12:55.709Z,1906.88
2018-06-08T09:13:55.722Z,1687.50
2018-06-08T09:14:55.716Z,1721.25
2018-06-08T09:15:55.719Z,1783.13
2018-06-08T09:16:55.754Z,1698.75
2018-06-08T09:17:55.718Z,1957.50
2018-06-08T09:18:55.720Z,1800.00
2018-06-08T09:19:55.735Z,1755.00
2018-06-08T09:20:55.770Z,1771.88
2018-06-08T09:21:55.745Z,1485.00
2018-06-08T09:22:55.762Z,1395.00
2018-06-08T09:23:55.751Z,1321.88
2018-06-08T09:24:55.756Z,1338.75
2018-06-08T09:25:55.787Z,1434.38
2018-06-08T09:26:55.777Z,1490.63
2018-06-08T09:27:55.764Z,1490.63
2018-06-08T09:28:55.770Z,1428.75
2018-06-08T09:29:55.778Z,1023.75
2018-06-08T09:30:55.929Z,945.00
2018-06-08T09:31:55.836Z,1231.88
2018-06-08T09:32:55.787Z,534.38
2018-06-08T09:33:55.837Z,399.38
2018-06-08T09:34:55.799Z,1175.63
2018-06-08T09:35:55.812Z,1400.63
2018-06-08T09:36:55.823Z,1473.75
2018-06-08T09:37:55.822Z,1063.13
2018-06-08T09:38:55.819Z,849.38
2018-06-08T09:39:55.840Z,1338.75
2018-06-08T09:40:55.832Z,1378.13
2018-06-08T09:41:55.860Z,1704.38
2018-06-08T09:42:55.827Z,1800.00
2018-06-08T09:43:55.843Z,1856.25
2018-06-08T09:44:55.834Z,956.25
2018-06-08T09:45:55.885Z,1743.75
2018-06-08T09:46:55.852Z,1811.25
2018-06-08T09:47:55.848Z,1068.75
2018-06-08T09:48:55.865Z,1957.50
2018-06-08T09:49:55.863Z,2188.13
2018-06-08T09:50:55.915Z,2385.00
2018-06-08T09:51:55.885Z,2435.63
2018-06-08T09:52:55.876Z,2649.38
2018-06-08T09:53:55.888Z,2638.13
2018-06-08T09:54:55.881Z,2756.25
2018-06-08T09:55:55.885Z,3060.00
2018-06-08T09:56:55.895Z,2891.25
2018-06-08T09:57:56.061Z,2925.00
2018-06-08T09:58:55.908Z,2986.88
2018-06-08T09:59:55.912Z,2880.00
2018-06-08T10:00:55.923Z,2896.88
2018-06-08T10:01:55.926Z,2885.63
2018-06-08T10:02:55.933Z,2761.88
2018-06-08T10:03:55.981Z,2581.88
2018-06-08T10:04:55.944Z,2733.75
2018-06-08T10:05:55.955Z,2626.88
2018-06-08T10:06:55.951Z,2553.75
2018-06-08T10:07:55.954Z,1282.50
2018-06-08T10:08:56.011Z,523.13
2018-06-08T10:09:56.009Z,669.38
2018-06-08T10:10:55.980Z,3048.75
2018-06-08T10:11:55.995Z,2295.00
2018-06-08T10:12:55.996Z,2936.25
2018-06-08T10:13:56.031Z,2902.50
2018-06-08T10:14:56.028Z,2885.63
2018-06-08T10:15:56.019Z,2823.75
2018-06-08T10:16:56.020Z,3060.00
2018-06-08T10:17:56.039Z,3155.63
2018-06-08T10:18:56.083Z,3121.88
2018-06-08T10:19:56.062Z,2705.63
2018-06-08T10:20:56.053Z,2632.50
2018-06-08T10:21:56.086Z,1935.00
2018-06-08T10:22:56.075Z,765.00
2018-06-08T10:23:56.117Z,635.63
2018-06-08T10:24:56.091Z,1603.13
2018-06-08T10:25:56.150Z,1760.63
2018-06-08T10:26:56.111Z,2311.88
2018-06-08T10:27:56.112Z,2998.13
2018-06-08T10:28:56.118Z,2975.63
2018-06-08T10:29:56.132Z,433.13
2018-06-08T10:30:56.137Z,466.88
2018-06-08T10:31:56.140Z,337.50
2018-06-08T10:32:56.147Z,348.75
2018-06-08T10:33:56.158Z,2722.50
2018-06-08T10:34:56.188Z,2098.13
2018-06-08T10:35:56.160Z,1912.50
2018-06-08T10:36:56.182Z,1906.88
2018-06-08T10:37:56.186Z,2041.88
2018-06-08T10:38:56.193Z,1895.63
2018-06-08T10:39:56.227Z,1518.75
2018-06-08T10:40:56.229Z,849.38
2018-06-08T10:41:56.198Z,635.63
2018-06-08T10:42:56.213Z,450.00
2018-06-08T10:43:56.223Z,523.13
2018-06-08T10:44:56.216Z,568.13
2018-06-08T10:45:56.261Z,568.13
2018-06-08T10:46:56.246Z,579.38
2018-06-08T10:47:56.241Z,838.13
2018-06-08T10:48:56.246Z,618.75
2018-06-08T10:49:56.613Z,1260.00
2018-06-08T10:50:56.254Z,568.13
2018-06-08T10:51:56.264Z,646.88
2018-06-08T10:52:56.268Z,888.75
2018-06-08T10:53:56.268Z,871.88
2018-06-08T10:54:56.279Z,1901.25
2018-06-08T10:55:56.309Z,759.38
2018-06-08T10:56:56.291Z,1383.75
2018-06-08T10:57:56.311Z,523.13
2018-06-08T10:58:56.301Z,703.13
2018-06-08T10:59:56.299Z,1794.38
2018-06-08T11:00:56.296Z,686.25
2018-06-08T11:01:56.329Z,618.75
2018-06-08T11:02:56.326Z,1530.00
2018-06-08T11:03:56.307Z,2418.75
2018-06-08T11:04:56.310Z,2863.13
2018-06-08T11:05:56.306Z,1850.63
2018-06-08T11:06:56.321Z,495.00
2018-06-08T11:07:56.578Z,781.88
2018-06-08T11:08:56.337Z,1080.00
2018-06-08T11:09:56.336Z,540.00
2018-06-08T11:10:56.342Z,1074.38
2018-06-08T11:11:56.334Z,708.75
2018-06-08T11:12:56.487Z,343.13
2018-06-08T11:13:56.350Z,1693.13
2018-06-08T11:14:56.355Z,1946.25
2018-06-08T11:15:56.355Z,202.50
2018-06-08T11:16:56.364Z,180.00
2018-06-08T11:17:56.380Z,213.75
2018-06-08T11:18:56.377Z,365.63
2018-06-08T11:19:56.429Z,236.25
2018-06-08T11:20:56.382Z,208.13
2018-06-08T11:21:56.439Z,241.88
2018-06-08T11:22:56.395Z,258.75
2018-06-08T11:23:56.388Z,281.25
2018-06-08T11:24:56.384Z,253.13
2018-06-08T11:25:56.399Z,1102.50
2018-06-08T11:26:56.436Z,286.88
2018-06-08T11:27:56.404Z,348.75
2018-06-08T11:28:56.432Z,129.38
2018-06-08T11:29:56.401Z,106.88
2018-06-08T11:30:56.403Z,101.25
2018-06-08T11:31:56.422Z,101.25
2018-06-08T11:32:56.416Z,101.25
2018-06-08T11:33:56.664Z,95.63
2018-06-08T11:34:56.429Z,95.63
2018-06-08T11:35:56.422Z,95.63
2018-06-08T11:36:56.418Z,90.00
2018-06-08T11:37:56.430Z,90.00
2018-06-08T11:38:56.428Z,90.00
2018-06-08T11:39:56.460Z,84.38
2018-06-08T11:40:56.433Z,84.38
2018-06-08T11:41:56.431Z,78.75
2018-06-08T11:42:56.497Z,78.75
2018-06-08T11:43:56.443Z,73.13
2018-06-08T11:44:56.568Z,67.50
2018-06-08T11:45:56.469Z,67.50
2018-06-08T11:46:56.431Z,61.88
2018-06-08T11:47:56.441Z,61.88
2018-06-08T11:48:56.442Z,56.25
2018-06-08T11:49:56.449Z,50.63
2018-06-08T11:50:56.485Z,50.63
2018-06-08T11:51:56.443Z,45.00
2018-06-08T11:52:56.448Z,45.00
2018-06-08T11:53:56.438Z,39.38
2018-06-08T11:54:56.449Z,39.38
2018-06-08T11:55:56.474Z,39.38
2018-06-08T11:56:56.447Z,39.38
2018-06-08T11:57:56.435Z,39.38
2018-06-08T11:58:56.447Z,33.75
2018-06-08T11:59:56.443Z,33.75
2018-06-08T12:00:56.466Z,33.75
2018-06-08T12:01:56.445Z,28.13
2018-06-08T12:02:56.476Z,28.13
2018-06-08T12:03:56.439Z,28.13
2018-06-08T12:04:56.440Z,22.50
2018-06-08T12:05:56.507Z,22.50
2018-06-08T12:06:56.464Z,16.88
2018-06-08T12:07:56.470Z,16.88
2018-06-08T12:08:56.473Z,16.88
2018-06-08T12:09:56.437Z,11.25
2018-06-08T12:10:56.433Z,11.25
2018-06-08T12:11:56.480Z,5.63
2018-06-08T12:12:56.479Z,5.63
2018-06-08T12:13:56.441Z,5.63
2018-06-08T12:14:56.435Z,5.63
2018-06-08T12:15:56.429Z,5.63
2018-06-08T12:16:56.440Z,5.63
2018-06-08T12:18:01.598Z,5.63
2018-06-08T12:18:56.438Z,0.00
2018-06-08T12:19:56.447Z,0.00
2018-06-08T12:20:56.439Z,0.00
2018-06-08T12:21:56.433Z,0.00
2018-06-08T12:22:56.477Z,0.00
2018-06-08T12:23:56.439Z,0.00
2018-06-08T12:24:56.432Z,0.00
2018-06-08T12:25:56.443Z,0.00
2018-06-08T12:26:56.433Z,0.00
2018-06-08T12:27:56.443Z,0.00
2018-06-08T12:28:56.418Z,0.00
2018-06-08T12:29:56.417Z,0.00
2018-06-08T12:30:56.415Z,0.00
2018-06-08T12:31:56.413Z,0.00
2018-06-08T12:32:56.421Z,0.00
2018-06-08T12:33:56.420Z,0.00
2018-06-08T12:34:56.417Z,0.00
2018-06-08T12:35:56.420Z,0.00
2018-06-08T12:36:56.407Z,0.00
2018-06-08T12:37:57.122Z,0.00
2018-06-08T12:38:56.402Z,0.00
2018-06-08T12:39:56.414Z,0.00
2018-06-08T12:40:56.398Z,0.00
2018-06-08T12:41:56.404Z,0.00
2018-06-08T12:42:56.389Z,0.00
2018-06-08T12:43:56.621Z,0.00
2018-06-08T12:44:56.390Z,0.00
2018-06-08T12:45:56.381Z,0.00
2018-06-08T12:46:56.383Z,0.00
2018-06-08T12:47:56.376Z,0.00
2018-06-08T12:48:56.428Z,0.00
2018-06-08T12:49:56.803Z,0.00
2018-06-08T12:50:56.394Z,5.63
2018-06-08T12:51:56.364Z,5.63
2018-06-08T12:52:56.367Z,5.63
2018-06-08T12:53:56.374Z,5.63
2018-06-08T12:54:56.364Z,5.63
2018-06-08T12:55:56.365Z,5.63
2018-06-08T12:56:56.352Z,5.63
2018-06-08T12:57:56.349Z,5.63
2018-06-08T12:58:56.341Z,5.63
2018-06-08T12:59:56.342Z,5.63
2018-06-08T13:00:56.383Z,5.63
2018-06-08T13:01:56.398Z,5.63
2018-06-08T13:02:56.335Z,5.63
2018-06-08T13:03:56.330Z,5.63
2018-06-08T13:04:56.352Z,5.63
2018-06-08T13:05:56.323Z,5.63
2018-06-08T13:06:56.321Z,5.63
2018-06-08T13:07:56.312Z,5.63
2018-06-08T13:08:56.349Z,5.63
2018-06-08T13:09:56.306Z,5.63
2018-06-08T13:10:56.311Z,5.63
2018-06-08T13:11:56.302Z,5.63
2018-06-08T13:12:56.298Z,5.63
2018-06-08T13:13:56.285Z,5.63
2018-06-08T13:14:56.295Z,5.63
2018-06-08T13:15:56.294Z,5.63
2018-06-08T13:16:56.292Z,5.63
2018-06-08T13:17:56.270Z,5.63
2018-06-08T13:18:56.275Z,11.25
2018-06-08T13:19:56.284Z,11.25
2018-06-08T13:20:56.288Z,11.25
2018-06-08T13:21:56.260Z,11.25
2018-06-08T13:22:56.262Z,11.25
2018-06-08T13:23:56.283Z,11.25
2018-06-08T13:24:56.342Z,11.25
2018-06-08T13:25:56.273Z,11.25
2018-06-08T13:26:56.238Z,11.25
2018-06-08T13:27:56.237Z,11.25
2018-06-08T13:28:56.226Z,11.25
2018-06-08T13:29:56.227Z,16.88
2018-06-08T13:30:56.245Z,16.88
2018-06-08T13:31:56.311Z,16.88
2018-06-08T13:32:56.269Z,16.88
2018-06-08T13:34:52.685Z,16.88
2018-06-08T13:34:56.209Z,16.88
2018-06-08T13:35:56.244Z,16.88
2018-06-08T13:36:56.224Z,16.88
2018-06-08T13:37:56.186Z,16.88
2018-06-08T13:38:56.188Z,16.88
2018-06-08T13:39:56.197Z,16.88
2018-06-08T13:41:44.359Z,16.88
2018-06-08T13:41:56.178Z,16.88
2018-06-08T13:45:11.917Z,22.50
2018-06-08T13:50:12.836Z,28.13
2018-06-08T13:51:06.302Z,28.13
2018-06-08T13:52:06.335Z,28.13
2018-06-08T13:53:06.325Z,28.13
2018-06-08T13:54:06.332Z,28.13
2018-06-08T13:55:06.430Z,33.75
2018-06-08T13:56:06.369Z,33.75
2018-06-08T14:12:59.795Z,67.50
2018-06-08T14:13:32.717Z,73.13
2018-06-08T14:14:32.820Z,84.38
2018-06-08T14:15:35.296Z,95.63
2018-06-08T14:16:32.686Z,95.63
2018-06-08T14:17:33.447Z,101.25
2018-06-08T14:18:33.036Z,101.25
2018-06-08T14:19:32.681Z,101.25
2018-06-08T14:20:34.348Z,101.25
2018-06-08T14:23:46.272Z,106.88
2018-06-08T14:24:39.951Z,106.88
2018-06-08T14:25:29.280Z,101.25
2018-06-08T14:26:29.270Z,95.63
2018-06-08T14:27:29.198Z,95.63
2018-06-08T14:28:29.481Z,101.25
2018-06-08T14:29:29.131Z,106.88
2018-06-08T14:30:29.158Z,106.88
2018-06-08T14:31:29.153Z,112.50
2018-06-08T14:32:29.148Z,112.50
2018-06-08T14:33:29.122Z,118.13
2018-06-08T14:34:29.108Z,123.75
2018-06-08T14:35:29.101Z,129.38
2018-06-08T14:36:29.125Z,140.63
2018-06-08T14:37:29.393Z,146.25
2018-06-08T14:38:29.083Z,157.50
2018-06-08T14:39:29.269Z,151.88
2018-06-08T14:40:30.020Z,151.88
2018-06-08T14:41:30.163Z,151.88
2018-06-08T14:42:29.790Z,151.88
2018-06-08T14:43:29.224Z,151.88
2018-06-08T14:44:29.060Z,140.63
2018-06-08T14:45:29.060Z,123.75
2018-06-08T14:46:29.079Z,112.50
2018-06-08T14:47:29.072Z,112.50
2018-06-08T14:48:29.049Z,106.88
2018-06-08T14:49:29.237Z,101.25
2018-06-08T14:50:29.033Z,101.25
2018-06-08T14:51:29.024Z,101.25
2018-06-08T14:52:29.020Z,101.25
2018-06-08T14:53:29.013Z,95.63
2018-06-08T14:54:29.016Z,90.00
2018-06-08T14:55:29.061Z,84.38
2018-06-08T14:56:29.019Z,84.38
2018-06-08T14:57:29.010Z,84.38
2018-06-08T14:58:29.022Z,84.38
2018-06-08T14:59:29.008Z,84.38
2018-06-08T15:00:28.991Z,73.13
2018-06-08T15:01:29.039Z,73.13
2018-06-08T15:02:28.993Z,67.50
2018-06-08T15:03:28.985Z,67.50
2018-06-08T15:04:29.008Z,73.13
2018-06-08T15:05:28.981Z,67.50
2018-06-08T15:06:28.973Z,67.50
2018-06-08T15:07:29.001Z,67.50
2018-06-08T15:08:28.968Z,67.50
2018-06-08T15:09:28.963Z,67.50
2018-06-08T15:10:28.960Z,67.50
2018-06-08T15:11:28.947Z,61.88
2018-06-08T15:12:29.124Z,61.88
2018-06-08T15:13:28.948Z,61.88
2018-06-08T15:14:29.180Z,61.88
2018-06-08T15:15:28.936Z,61.88
2018-06-08T15:16:28.932Z,61.88
2018-06-08T15:17:29.033Z,56.25
2018-06-08T15:18:28.969Z,56.25
2018-06-08T15:19:36.809Z,56.25
2018-06-08T15:21:04.812Z,56.25
2018-06-08T15:21:29.280Z,56.25
2018-06-08T15:22:28.904Z,56.25
2018-06-08T15:23:29.242Z,50.63
2018-06-08T15:24:28.893Z,50.63
2018-06-08T15:25:28.891Z,50.63
2018-06-08T15:26:28.887Z,50.63
2018-06-08T15:27:28.893Z,56.25
2018-06-08T15:28:28.910Z,61.88
2018-06-08T15:29:28.876Z,61.88
2018-06-08T15:30:28.912Z,61.88
2018-06-08T15:31:28.865Z,67.50
2018-06-08T15:32:28.858Z,73.13
2018-06-08T15:33:28.872Z,73.13
2018-06-08T15:34:28.862Z,78.75
2018-06-08T15:35:28.861Z,84.38
2018-06-08T15:36:28.908Z,95.63
2018-06-08T15:37:28.840Z,101.25
2018-06-08T15:38:28.838Z,112.50
2018-06-08T15:39:28.816Z,112.50
2018-06-08T15:40:28.949Z,135.00
2018-06-08T15:41:28.831Z,146.25
2018-06-08T15:42:28.828Z,157.50
2018-06-08T15:43:28.949Z,163.13
2018-06-08T15:44:28.811Z,163.13
2018-06-08T15:45:28.804Z,168.75
2018-06-08T15:46:28.802Z,163.13
2018-06-08T15:47:28.788Z,163.13
2018-06-08T15:48:28.815Z,157.50
2018-06-08T15:49:28.802Z,157.50
2018-06-08T15:50:28.787Z,151.88
2018-06-08T15:51:28.783Z,151.88
2018-06-08T15:52:28.789Z,151.88
2018-06-08T15:53:28.785Z,157.50
2018-06-08T15:54:28.781Z,157.50
2018-06-08T15:55:29.442Z,146.25
2018-06-08T15:56:28.773Z,146.25
2018-06-08T15:57:28.764Z,146.25
2018-06-08T15:58:28.754Z,146.25
2018-06-08T15:59:28.788Z,140.63
2018-06-08T16:00:28.791Z,140.63
2018-06-08T16:01:28.791Z,140.63
2018-06-08T16:02:28.758Z,140.63
2018-06-08T16:04:55.740Z,146.25
2018-06-08T16:05:02.322Z,140.63
2018-06-08T16:05:56.262Z,135.00
2018-06-08T16:06:56.267Z,135.00
2018-06-08T16:07:56.238Z,135.00
2018-06-08T16:08:56.266Z,129.38
2018-06-08T16:09:56.306Z,135.00
2018-06-08T16:11:14.338Z,135.00
2018-06-08T16:11:56.264Z,129.38
2018-06-08T16:12:56.231Z,123.75
2018-06-08T16:13:56.232Z,129.38
2018-06-08T16:14:56.226Z,123.75
2018-06-08T16:15:56.261Z,129.38
2018-06-08T16:16:56.240Z,123.75
2018-06-08T16:17:56.246Z,123.75
2018-06-08T16:19:52.868Z,129.38
2018-06-08T16:19:56.207Z,123.75
2018-06-08T16:20:56.211Z,123.75
2018-06-08T16:21:56.451Z,123.75
2018-06-08T16:22:56.376Z,123.75
2018-06-08T16:23:56.203Z,129.38
2018-06-08T16:24:56.416Z,129.38
2018-06-08T16:25:56.191Z,135.00
2018-06-08T16:26:57.039Z,135.00
2018-06-08T16:27:57.150Z,135.00
2018-06-08T16:28:56.227Z,135.00
2018-06-08T16:29:56.418Z,135.00
2018-06-08T16:35:09.738Z,118.13
2018-06-08T16:35:40.877Z,106.88
2018-06-08T16:38:25.400Z,90.00
2018-06-08T16:39:25.342Z,90.00
2018-06-08T16:40:25.401Z,90.00
2018-06-08T16:41:25.404Z,90.00
2018-06-08T16:42:25.355Z,90.00
2018-06-08T16:43:25.343Z,84.38
2018-06-08T16:44:25.327Z,84.38
2018-06-08T16:45:25.338Z,90.00
2018-06-08T16:46:25.338Z,95.63
2018-06-08T16:47:25.333Z,101.25
2018-06-08T16:48:25.343Z,106.88
2018-06-08T16:49:25.353Z,101.25
2018-06-08T16:50:25.371Z,112.50
2018-06-08T16:51:25.321Z,123.75
2018-06-08T16:52:25.402Z,101.25
2018-06-08T16:53:25.331Z,106.88
2018-06-08T16:54:25.311Z,112.50
2018-06-08T16:55:25.353Z,106.88
2018-06-08T16:56:25.344Z,106.88
2018-06-08T16:57:25.301Z,106.88
2018-06-08T16:58:25.289Z,106.88
2018-06-08T16:59:25.280Z,106.88
2018-06-08T17:00:25.420Z,101.25
2018-06-08T17:01:25.284Z,95.63
2018-06-08T17:02:25.346Z,95.63
2018-06-08T17:03:25.284Z,90.00
2018-06-08T17:04:25.268Z,95.63
2018-06-08T17:05:25.277Z,95.63
2018-06-08T17:06:25.411Z,101.25
2018-06-08T17:07:25.267Z,90.00
2018-06-08T17:08:25.305Z,106.88
2018-06-08T17:09:25.261Z,101.25
2018-06-08T17:10:25.257Z,101.25
2018-06-08T17:11:25.258Z,101.25
2018-06-08T17:12:25.255Z,95.63
2018-06-08T17:13:25.275Z,90.00
2018-06-08T17:14:25.347Z,90.00
2018-06-08T17:15:25.240Z,84.38
2018-06-08T17:16:25.242Z,84.38
2018-06-08T17:17:25.244Z,90.00
2018-06-08T17:18:25.307Z,90.00
2018-06-08T17:19:25.387Z,90.00
2018-06-08T17:20:25.238Z,90.00
2018-06-08T17:21:25.244Z,90.00
2018-06-08T17:22:25.763Z,90.00
2018-06-08T17:23:25.222Z,84.38
2018-06-08T17:24:25.221Z,78.75
2018-06-08T17:25:25.231Z,84.38
2018-06-08T17:26:25.237Z,73.13
2018-06-08T17:27:26.256Z,84.38
2018-06-08T17:28:25.228Z,90.00
2018-06-08T17:29:25.275Z,90.00
2018-06-08T17:30:25.208Z,90.00
2018-06-08T17:31:25.209Z,90.00
2018-06-08T17:32:25.195Z,90.00
2018-06-08T17:33:25.191Z,90.00
2018-06-08T17:34:25.193Z,90.00
2018-06-08T17:35:25.236Z,84.38
2018-06-08T17:36:25.182Z,84.38
2018-06-08T17:37:25.184Z,78.75
2018-06-08T17:38:25.178Z,73.13
2018-06-08T17:39:25.179Z,73.13
2018-06-08T17:40:25.207Z,73.13
2018-06-08T17:41:25.249Z,73.13
2018-06-08T17:42:25.168Z,67.50
2018-06-08T17:43:25.168Z,67.50
2018-06-08T17:44:25.179Z,67.50
2018-06-08T17:45:25.197Z,61.88
2018-06-08T17:46:25.157Z,56.25
2018-06-08T17:47:25.180Z,61.88
2018-06-08T17:48:25.152Z,61.88
2018-06-08T17:49:25.154Z,61.88
2018-06-08T17:50:25.149Z,56.25
2018-06-08T17:51:25.200Z,61.88
2018-06-08T17:52:25.130Z,56.25
2018-06-08T17:53:25.134Z,50.63
2018-06-08T17:54:25.148Z,56.25
2018-06-08T17:55:25.141Z,50.63
2018-06-08T17:56:25.129Z,56.25
2018-06-08T17:57:25.140Z,61.88
2018-06-08T17:58:25.123Z,67.50
2018-06-08T17:59:25.109Z,67.50
2018-06-08T18:00:25.113Z,67.50
2018-06-08T18:01:25.103Z,67.50
2018-06-08T18:02:25.113Z,73.13
2018-06-08T18:03:25.108Z,78.75
2018-06-08T18:04:25.098Z,78.75
2018-06-08T18:05:25.099Z,78.75
2018-06-08T18:06:25.149Z,78.75
2018-06-08T18:07:25.100Z,78.75
2018-06-08T18:08:25.096Z,73.13
2018-06-08T18:09:25.115Z,73.13
2018-06-08T18:10:25.082Z,73.13
2018-06-08T18:11:25.089Z,61.88
2018-06-08T18:12:25.106Z,56.25
2018-06-08T18:13:25.079Z,50.63
2018-06-08T18:14:25.080Z,45.00
2018-06-08T18:15:25.169Z,39.38
2018-06-08T18:16:25.069Z,39.38
2018-06-08T18:17:25.061Z,39.38
2018-06-08T18:18:25.099Z,33.75
2018-06-08T18:19:25.396Z,33.75
2018-06-08T18:20:25.060Z,33.75
2018-06-08T18:21:25.059Z,28.13
2018-06-08T18:22:25.046Z,28.13
2018-06-08T18:23:25.071Z,28.13
2018-06-08T18:24:25.036Z,28.13
2018-06-08T18:25:25.109Z,28.13
2018-06-08T18:26:25.038Z,28.13
2018-06-08T18:27:31.913Z,28.13
2018-06-08T18:28:25.077Z,28.13
2018-06-08T18:29:25.049Z,28.13
2018-06-08T18:30:25.271Z,28.13
2018-06-08T18:31:25.409Z,28.13
2018-06-08T18:32:25.330Z,28.13
2018-06-08T18:33:25.047Z,28.13
2018-06-08T18:34:25.220Z,22.50
2018-06-08T18:35:25.337Z,22.50
2018-06-08T18:36:25.011Z,22.50
2018-06-08T18:37:25.015Z,22.50
2018-06-08T18:38:25.926Z,22.50
2018-06-08T18:39:55.905Z,22.50
2018-06-08T18:40:24.983Z,22.50
2018-06-08T18:41:24.987Z,16.88
2018-06-08T18:42:25.883Z,16.88
2018-06-08T18:43:25.047Z,16.88
2018-06-08T18:44:25.033Z,16.88
2018-06-08T18:45:25.884Z,16.88
2018-06-08T18:46:24.959Z,16.88
2018-06-08T18:47:24.970Z,16.88
2018-06-08T18:48:24.960Z,16.88
2018-06-08T18:49:24.958Z,16.88
2018-06-08T18:50:25.010Z,16.88
2018-06-08T18:51:24.948Z,16.88
2018-06-08T18:52:24.982Z,16.88
2018-06-08T18:53:24.945Z,16.88
2018-06-08T18:54:24.966Z,16.88
2018-06-08T18:55:24.929Z,16.88
2018-06-08T18:56:24.929Z,16.88
2018-06-08T18:57:24.923Z,16.88
2018-06-08T18:58:24.920Z,11.25
2018-06-08T18:59:24.934Z,11.25
2018-06-08T19:00:24.907Z,11.25
2018-06-08T19:01:24.914Z,11.25
2018-06-08T19:02:24.909Z,11.25
2018-06-08T19:03:24.915Z,11.25
2018-06-08T19:04:24.929Z,11.25
2018-06-08T19:05:24.882Z,11.25
2018-06-08T19:06:24.887Z,11.25
2018-06-08T19:07:24.926Z,11.25
2018-06-08T19:08:24.887Z,11.25
2018-06-08T19:09:24.883Z,11.25
2018-06-08T19:10:24.876Z,11.25
2018-06-08T19:11:24.888Z,11.25
2018-06-08T19:12:24.874Z,5.63
2018-06-08T19:13:25.022Z,5.63
2018-06-08T19:14:24.856Z,5.63
2018-06-08T19:15:24.853Z,5.63
2018-06-08T19:16:24.909Z,5.63
2018-06-08T19:17:24.848Z,5.63
2018-06-08T19:18:24.839Z,5.63
2018-06-08T19:19:24.823Z,5.63
2018-06-08T19:20:24.887Z,5.63
2018-06-08T19:21:24.845Z,5.63
2018-06-08T19:22:24.837Z,5.63
2018-06-08T19:23:24.966Z,5.63
2018-06-08T19:24:24.814Z,5.63
2018-06-08T19:25:24.820Z,5.63
2018-06-08T19:26:24.838Z,5.63
2018-06-08T19:27:24.985Z,0.00
2018-06-08T19:28:25.049Z,0.00
2018-06-08T19:29:24.823Z,0.00
2018-06-08T19:30:25.027Z,0.00
2018-06-08T19:31:24.971Z,0.00
2018-06-08T19:32:24.793Z,0.00
2018-06-08T19:33:24.969Z,0.00
2018-06-08T19:34:24.778Z,0.00
2018-06-08T19:35:24.766Z,0.00
2018-06-08T19:36:24.772Z,0.00
2018-06-08T19:37:24.795Z,0.00
2018-06-08T19:38:24.749Z,0.00
2018-06-08T19:39:24.865Z,0.00
2018-06-08T19:40:24.740Z,0.00
2018-06-08T19:41:24.770Z,0.00
2018-06-08T19:42:24.937Z,0.00
2018-06-08T19:43:24.744Z,0.00
2018-06-08T19:44:24.802Z,0.00
2018-06-08T19:45:24.755Z,0.00
2018-06-08T19:46:24.723Z,0.00
2018-06-08T19:47:24.735Z,0.00
2018-06-08T19:48:24.757Z,0.00
2018-06-08T19:49:24.729Z,0.00
2018-06-08T19:50:25.467Z,0.00
2018-06-08T19:51:24.699Z,0.00
2018-06-08T19:52:24.735Z,0.00
2018-06-08T19:53:24.711Z,0.00
2018-06-08T19:54:24.751Z,0.00
2018-06-08T19:55:24.713Z,0.00
2018-06-08T19:56:24.903Z,0.00
2018-06-08T19:57:24.710Z,0.00
2018-06-08T19:58:24.727Z,0.00
2018-06-08T19:59:24.667Z,0.00
2018-06-08T20:00:24.710Z,0.00
2018-06-08T20:01:24.903Z,0.00
2018-06-08T20:02:24.645Z,0.00
2018-06-08T20:03:24.788Z,0.00
2018-06-08T20:04:24.680Z,0.00
2018-06-08T20:05:24.640Z,0.00
2018-06-08T20:06:24.635Z,0.00
2018-06-08T20:07:24.654Z,0.00
2018-06-08T20:08:24.625Z,0.00
2018-06-08T20:09:24.858Z,0.00
2018-06-08T20:10:24.923Z,0.00
2018-06-08T20:11:24.607Z,0.00
2018-06-08T20:12:24.604Z,0.00
2018-06-08T20:13:24.615Z,0.00
2018-06-08T20:14:24.977Z,0.00
2018-06-08T20:15:24.596Z,0.00
2018-06-08T20:16:24.865Z,0.00
2018-06-08T20:17:24.578Z,0.00
2018-06-08T20:18:24.591Z,0.00
2018-06-08T20:19:24.580Z,0.00
2018-06-08T20:20:24.591Z,0.00
2018-06-08T20:21:24.590Z,0.00
2018-06-08T20:22:24.630Z,0.00
2018-06-08T20:23:24.556Z,0.00
2018-06-08T20:24:24.650Z,0.00
2018-06-08T20:25:24.540Z,0.00
2018-06-08T20:26:24.614Z,0.00
2018-06-08T20:27:24.683Z,0.00
2018-06-08T20:28:24.777Z,0.00
2018-06-08T20:29:24.525Z,0.00
2018-06-08T20:30:24.528Z,0.00
2018-06-08T20:31:24.519Z,0.00
2018-06-08T20:32:24.507Z,0.00
2018-06-08T20:33:24.540Z,0.00
2018-06-08T20:34:24.501Z,0.00
2018-06-08T20:35:24.513Z,0.00
2018-06-08T20:36:24.560Z,0.00
2018-06-08T20:37:24.629Z,0.00
2018-06-08T20:38:24.477Z,0.00
2018-06-08T20:39:24.609Z,0.00
2018-06-08T20:40:24.468Z,0.00
2018-06-08T20:41:24.468Z,0.00
2018-06-08T20:42:24.462Z,0.00